createdAt,value
2022-12-24T00:00:02.071Z,117.00
2022-12-24T00:03:47.034Z,161.50
2022-12-24T00:06:52.642Z,163.00
2022-12-24T00:09:57.988Z,148.00
2022-12-24T00:13:02.172Z,136.75
2022-12-24T00:16:06.372Z,143.00
2022-12-24T00:19:11.277Z,167.75
2022-12-24T00:22:16.877Z,166.75
2022-12-24T00:25:25.708Z,137.67
2022-12-24T00:28:29.381Z,143.33
2022-12-24T00:31:33.845Z,152.00
2022-12-24T00:34:40.664Z,137.67
2022-12-24T00:37:49.083Z,133.50
2022-12-24T00:41:00.156Z,154.00
2022-12-24T00:44:10.030Z,159.75
2022-12-24T00:47:13.945Z,150.75
2022-12-24T00:50:19.283Z,159.50
2022-12-24T00:53:23.739Z,138.00
2022-12-24T00:56:29.725Z,140.67
2022-12-24T00:59:33.407Z,156.33
2022-12-24T01:02:40.460Z,131.00
2022-12-24T01:05:48.719Z,149.67
2022-12-24T01:08:56.924Z,157.00
2022-12-24T01:12:05.720Z,133.33
2022-12-24T01:15:12.165Z,143.75
2022-12-24T01:18:16.548Z,139.25
2022-12-24T01:21:20.833Z,165.00
2022-12-24T01:24:24.445Z,157.25
2022-12-24T01:27:30.415Z,161.25
2022-12-24T01:30:34.863Z,159.75
2022-12-24T01:33:40.596Z,131.50
2022-12-24T01:36:44.362Z,133.67
2022-12-24T01:39:48.804Z,145.67
2022-12-24T01:43:12.557Z,130.00
2022-12-24T01:46:25.290Z,140.33
2022-12-24T01:49:29.421Z,126.67
2022-12-24T01:52:37.496Z,121.67
2022-12-24T01:55:43.137Z,141.33
2022-12-24T01:58:55.218Z,120.33
2022-12-24T02:01:59.320Z,125.33
2022-12-24T02:05:09.589Z,114.33
2022-12-24T02:08:13.783Z,132.00
2022-12-24T02:11:22.380Z,120.00
2022-12-24T02:14:35.143Z,121.33
2022-12-24T02:17:49.171Z,113.67
2022-12-24T02:21:25.216Z,137.67
2022-12-24T02:25:06.200Z,128.00
2022-12-24T02:28:24.254Z,122.00
2022-12-24T02:31:38.041Z,127.33
2022-12-24T02:34:48.893Z,111.33
2022-12-24T02:37:58.295Z,116.33
2022-12-24T02:41:08.838Z,110.67
2022-12-24T02:44:14.051Z,104.67
2022-12-24T02:47:21.083Z,109.33
2022-12-24T02:50:26.376Z,145.00
2022-12-24T02:53:30.371Z,108.00
2022-12-24T02:56:56.547Z,123.67
2022-12-24T03:00:05.606Z,122.67
2022-12-24T03:03:26.099Z,116.67
2022-12-24T03:06:40.204Z,115.00
2022-12-24T03:10:03.836Z,111.33
2022-12-24T03:13:11.992Z,113.67
2022-12-24T03:16:22.626Z,105.00
2022-12-24T03:19:29.400Z,115.00
2022-12-24T03:22:35.618Z,110.00
2022-12-24T03:25:43.944Z,116.67
2022-12-24T03:28:51.175Z,106.33
2022-12-24T03:32:04.099Z,109.67
2022-12-24T03:35:14.075Z,109.33
2022-12-24T03:38:18.319Z,137.67
2022-12-24T03:41:22.436Z,140.33
2022-12-24T03:44:27.583Z,129.33
2022-12-24T03:47:32.925Z,118.00
2022-12-24T03:50:38.741Z,116.00
2022-12-24T03:53:44.928Z,101.33
2022-12-24T03:56:50.756Z,106.67
2022-12-24T03:59:57.586Z,103.67
2022-12-24T04:03:02.095Z,95.00
2022-12-24T04:06:10.568Z,110.67
2022-12-24T04:09:14.647Z,108.33
2022-12-24T04:12:19.587Z,134.00
2022-12-24T04:15:23.211Z,135.00
2022-12-24T04:18:29.040Z,131.00
2022-12-24T04:21:34.282Z,136.67
2022-12-24T04:24:39.086Z,124.67
2022-12-24T04:27:43.611Z,142.33
2022-12-24T04:30:48.033Z,88.67
2022-12-24T04:33:53.574Z,133.00
2022-12-24T04:37:01.681Z,158.33
2022-12-24T04:40:06.153Z,135.33
2022-12-24T04:43:10.568Z,132.33
2022-12-24T04:46:18.091Z,136.00
2022-12-24T04:49:22.686Z,125.00
2022-12-24T04:52:28.336Z,156.33
2022-12-24T04:55:33.364Z,177.75
2022-12-24T04:58:37.135Z,186.25
2022-12-24T05:01:41.270Z,132.00
2022-12-24T05:04:45.112Z,140.33
2022-12-24T05:07:51.542Z,147.00
2022-12-24T05:10:57.659Z,117.33
2022-12-24T05:14:02.039Z,104.00
2022-12-24T05:17:05.579Z,137.67
2022-12-24T05:20:10.587Z,124.00
2022-12-24T05:23:35.378Z,113.00
2022-12-24T05:26:42.876Z,110.67
2022-12-24T05:29:46.541Z,112.67
2022-12-24T05:32:50.708Z,106.67
2022-12-24T05:35:55.791Z,106.33
2022-12-24T05:39:02.879Z,106.00
2022-12-24T05:42:10.395Z,107.67
2022-12-24T05:45:15.851Z,110.00
2022-12-24T05:48:19.466Z,106.33
2022-12-24T05:51:24.821Z,102.33
2022-12-24T05:54:31.520Z,120.67
2022-12-24T05:57:35.544Z,107.00
2022-12-24T06:00:41.171Z,135.00
2022-12-24T06:03:46.448Z,105.00
2022-12-24T06:06:50.283Z,110.67
2022-12-24T06:09:55.662Z,112.67
2022-12-24T06:13:02.176Z,96.00
2022-12-24T06:16:08.904Z,145.00
2022-12-24T06:19:12.648Z,135.00
2022-12-24T06:22:23.510Z,145.67
2022-12-24T06:25:28.624Z,119.67
2022-12-24T06:28:35.339Z,125.00
2022-12-24T06:31:40.265Z,117.67
2022-12-24T06:34:44.817Z,150.00
2022-12-24T06:37:50.497Z,192.25
2022-12-24T06:40:57.307Z,177.25
2022-12-24T06:44:03.808Z,166.50
2022-12-24T06:47:08.400Z,189.75
2022-12-24T06:50:12.982Z,173.00
2022-12-24T06:53:23.362Z,199.25
2022-12-24T06:56:28.711Z,217.25
2022-12-24T06:59:32.803Z,332.25
2022-12-24T07:02:40.979Z,356.25
2022-12-24T07:05:47.967Z,202.25
2022-12-24T07:08:54.227Z,177.75
2022-12-24T07:11:59.996Z,158.00
2022-12-24T07:15:03.837Z,161.75
2022-12-24T07:18:08.144Z,146.00
2022-12-24T07:21:12.171Z,128.00
2022-12-24T07:24:16.517Z,135.33
2022-12-24T07:27:21.758Z,136.00
2022-12-24T07:30:27.261Z,204.00
2022-12-24T07:33:32.744Z,199.75
2022-12-24T07:36:37.377Z,224.75
2022-12-24T07:39:44.603Z,190.00
2022-12-24T07:42:51.838Z,226.25
2022-12-24T07:45:58.068Z,227.25
2022-12-24T07:49:02.549Z,232.75
2022-12-24T07:52:06.801Z,231.00
2022-12-24T07:55:11.957Z,227.00
2022-12-24T07:58:17.899Z,222.00
2022-12-24T08:01:22.937Z,295.25
2022-12-24T08:04:27.704Z,307.75
2022-12-24T08:07:31.822Z,328.50
2022-12-24T08:10:35.685Z,274.50
2022-12-24T08:13:42.044Z,241.75
2022-12-24T08:16:45.886Z,248.75
2022-12-24T08:19:49.962Z,229.25
2022-12-24T08:22:54.534Z,222.25
2022-12-24T08:26:00.762Z,274.00
2022-12-24T08:29:08.188Z,268.25
2022-12-24T08:32:13.338Z,248.25
2022-12-24T08:35:19.429Z,303.75
2022-12-24T08:38:24.812Z,323.25
2022-12-24T08:41:29.456Z,411.50
2022-12-24T08:44:36.071Z,396.75
2022-12-24T08:47:41.367Z,370.50
2022-12-24T08:50:49.205Z,404.25
2022-12-24T08:53:57.343Z,413.00
2022-12-24T08:57:05.697Z,382.25
2022-12-24T09:00:14.114Z,357.25
2022-12-24T09:03:45.369Z,343.25
2022-12-24T09:06:49.123Z,384.25
2022-12-24T09:09:55.072Z,367.25
2022-12-24T09:12:59.755Z,360.25
2022-12-24T09:16:33.678Z,366.50
2022-12-24T09:19:38.360Z,343.75
2022-12-24T09:22:42.582Z,318.00
2022-12-24T09:25:50.909Z,301.50
2022-12-24T09:28:55.196Z,313.00
2022-12-24T09:32:06.640Z,330.00
2022-12-24T09:35:11.848Z,326.00
2022-12-24T09:38:15.535Z,320.00
2022-12-24T09:41:34.703Z,398.25
2022-12-24T09:44:45.665Z,344.50
2022-12-24T09:47:54.286Z,322.25
2022-12-24T09:51:05.983Z,318.50
2022-12-24T09:54:18.057Z,321.75
2022-12-24T09:57:29.030Z,273.50
2022-12-24T10:00:40.380Z,280.50
2022-12-24T10:03:49.620Z,288.00
2022-12-24T10:07:01.153Z,263.50
2022-12-24T10:10:15.748Z,276.75
2022-12-24T10:13:37.270Z,267.00
2022-12-24T10:16:52.466Z,287.00
2022-12-24T10:20:19.959Z,247.25
2022-12-24T10:23:36.737Z,258.00
2022-12-24T10:26:49.381Z,250.50
2022-12-24T10:30:01.823Z,249.50
2022-12-24T10:33:16.817Z,277.25
2022-12-24T10:36:30.984Z,267.75
2022-12-24T10:39:37.930Z,292.25
2022-12-24T10:42:50.510Z,335.25
2022-12-24T10:45:58.216Z,354.00
2022-12-24T10:49:07.389Z,320.75
2022-12-24T10:52:18.067Z,387.75
2022-12-24T10:55:27.554Z,344.00
2022-12-24T10:58:33.063Z,370.75
2022-12-24T11:01:51.735Z,423.00
2022-12-24T11:04:59.495Z,472.00
2022-12-24T11:08:05.979Z,438.50
2022-12-24T11:11:14.307Z,434.75
2022-12-24T11:14:21.914Z,374.50
2022-12-24T11:17:26.048Z,355.25
2022-12-24T11:20:32.657Z,271.25
2022-12-24T11:23:40.946Z,251.00
2022-12-24T11:26:46.261Z,222.50
2022-12-24T11:29:50.282Z,218.50
2022-12-24T11:33:20.344Z,209.00
2022-12-24T11:36:27.754Z,215.00
2022-12-24T11:39:41.458Z,222.75
2022-12-24T11:42:45.427Z,182.00
2022-12-24T11:45:54.679Z,180.75
2022-12-24T11:49:14.815Z,182.00
2022-12-24T11:52:25.958Z,205.00
2022-12-24T11:55:37.972Z,232.75
2022-12-24T11:58:47.407Z,244.50
2022-12-24T12:01:58.455Z,250.50
2022-12-24T12:05:10.965Z,263.00
2022-12-24T12:08:20.364Z,275.00
2022-12-24T12:11:28.835Z,282.00
2022-12-24T12:14:38.350Z,313.50
2022-12-24T12:17:47.943Z,300.00
2022-12-24T12:20:58.093Z,278.50
2022-12-24T12:24:09.194Z,247.50
2022-12-24T12:27:24.363Z,265.75
2022-12-24T12:30:29.576Z,275.25
2022-12-24T12:33:40.983Z,270.00
2022-12-24T12:36:49.861Z,248.75
2022-12-24T12:39:55.390Z,187.00
2022-12-24T12:43:14.436Z,217.00
2022-12-24T12:46:26.984Z,222.50
2022-12-24T12:49:44.803Z,203.50
2022-12-24T12:53:02.831Z,231.25
2022-12-24T12:56:19.425Z,276.75
2022-12-24T12:59:33.289Z,343.00
2022-12-24T13:02:57.833Z,294.75
2022-12-24T13:06:31.556Z,307.75
2022-12-24T13:10:00.870Z,332.00
2022-12-24T13:13:30.936Z,397.25
2022-12-24T13:17:06.445Z,400.75
2022-12-24T13:20:20.476Z,402.00
2022-12-24T13:23:27.508Z,419.50
2022-12-24T13:26:32.411Z,419.75
2022-12-24T13:29:46.125Z,330.00
2022-12-24T13:33:03.979Z,359.25
2022-12-24T13:36:10.661Z,369.50
2022-12-24T13:39:21.223Z,408.75
2022-12-24T13:42:49.679Z,427.75
2022-12-24T13:45:54.223Z,428.25
2022-12-24T13:49:15.739Z,347.75
2022-12-24T13:52:24.391Z,362.00
2022-12-24T13:55:28.714Z,395.50
2022-12-24T13:58:33.984Z,379.00
2022-12-24T14:01:44.211Z,411.75
2022-12-24T14:04:53.189Z,420.00
2022-12-24T14:07:59.851Z,436.00
2022-12-24T14:11:08.715Z,408.50
2022-12-24T14:14:29.101Z,345.00
2022-12-24T14:17:36.178Z,468.25
2022-12-24T14:20:42.055Z,410.25
2022-12-24T14:23:55.752Z,448.50
2022-12-24T14:27:03.108Z,475.75
2022-12-24T14:30:11.272Z,466.00
2022-12-24T14:33:32.792Z,465.25
2022-12-24T14:36:39.389Z,440.75
2022-12-24T14:39:47.880Z,406.25
2022-12-24T14:43:00.205Z,395.75
2022-12-24T14:46:13.734Z,474.25
2022-12-24T14:49:32.570Z,534.00
2022-12-24T14:53:04.564Z,440.75
2022-12-24T14:56:16.092Z,510.75
2022-12-24T14:59:21.808Z,508.75
2022-12-24T15:02:48.047Z,530.67
2022-12-24T15:05:55.014Z,466.00
2022-12-24T15:09:01.842Z,449.25
2022-12-24T15:12:06.720Z,422.25
2022-12-24T15:15:17.781Z,451.75
2022-12-24T15:18:26.706Z,442.25
2022-12-24T15:21:33.693Z,425.50
2022-12-24T15:24:48.129Z,411.75
2022-12-24T15:27:55.308Z,463.75
2022-12-24T15:31:09.863Z,501.75
2022-12-24T15:34:27.526Z,529.50
2022-12-24T15:37:37.536Z,503.75
2022-12-24T15:40:52.367Z,514.00
2022-12-24T15:44:04.599Z,489.00
2022-12-24T15:47:20.429Z,573.40
2022-12-24T15:50:30.994Z,553.40
2022-12-24T15:53:40.635Z,517.20
2022-12-24T15:56:51.352Z,484.00
2022-12-24T15:59:59.681Z,471.00
2022-12-24T16:03:18.483Z,334.25
2022-12-24T16:06:23.684Z,397.25
2022-12-24T16:09:43.863Z,422.25
2022-12-24T16:12:53.453Z,429.25
2022-12-24T16:16:01.269Z,415.75
2022-12-24T16:19:25.354Z,464.25
2022-12-24T16:22:38.069Z,533.33
2022-12-24T16:25:41.728Z,438.00
2022-12-24T16:28:47.430Z,444.50
2022-12-24T16:31:54.369Z,439.50
2022-12-24T16:34:58.350Z,447.00
2022-12-24T16:38:04.506Z,473.00
2022-12-24T16:41:09.007Z,464.25
2022-12-24T16:44:13.275Z,484.25
2022-12-24T16:47:21.133Z,407.25
2022-12-24T16:55:08.714Z,328.00
2022-12-24T16:58:16.289Z,352.75
2022-12-24T17:01:25.940Z,366.75
2022-12-24T17:04:33.670Z,382.50
2022-12-24T17:07:43.280Z,461.25
2022-12-24T17:10:54.243Z,587.60
2022-12-24T17:14:08.368Z,529.50
2022-12-24T17:17:28.522Z,398.75
2022-12-24T17:20:34.852Z,377.25
2022-12-24T17:23:42.128Z,457.75
2022-12-24T17:26:52.903Z,470.25
2022-12-24T17:29:56.661Z,459.50
2022-12-24T17:33:09.341Z,411.50
2022-12-24T17:36:18.367Z,456.00
2022-12-24T17:39:27.648Z,461.00
2022-12-24T17:42:33.423Z,464.75
2022-12-24T17:45:42.119Z,493.25
2022-12-24T17:48:47.187Z,347.75
2022-12-24T17:51:53.744Z,447.75
2022-12-24T17:54:57.517Z,523.50
2022-12-24T17:58:02.830Z,422.25
2022-12-24T18:02:04.116Z,418.25
2022-12-24T18:05:10.716Z,467.50
2022-12-24T18:08:15.140Z,374.25
2022-12-24T18:11:48.409Z,364.75
2022-12-24T18:14:52.093Z,370.50
2022-12-24T18:18:00.154Z,390.50
2022-12-24T18:21:09.733Z,444.75
2022-12-24T18:24:15.262Z,419.50
2022-12-24T18:27:19.332Z,418.50
2022-12-24T18:30:27.991Z,447.00
2022-12-24T18:33:37.012Z,436.00
2022-12-24T18:36:42.535Z,396.75
2022-12-24T18:39:46.594Z,398.00
2022-12-24T18:42:52.171Z,360.25
2022-12-24T18:45:55.772Z,312.00
2022-12-24T18:49:01.039Z,366.50
2022-12-24T18:52:06.820Z,431.00
2022-12-24T18:55:11.960Z,436.75
2022-12-24T18:58:15.985Z,563.25
2022-12-24T19:01:23.629Z,461.25
2022-12-24T19:04:28.957Z,448.75
2022-12-24T19:07:36.613Z,417.00
2022-12-24T19:10:42.564Z,399.00
2022-12-24T19:13:49.824Z,421.50
2022-12-24T19:16:54.240Z,411.75
2022-12-24T19:19:58.168Z,426.50
2022-12-24T19:23:34.032Z,359.75
2022-12-24T19:26:38.181Z,300.25
2022-12-24T19:29:41.792Z,276.50
2022-12-24T19:32:45.910Z,293.00
2022-12-24T19:35:49.688Z,318.75
2022-12-24T19:38:55.211Z,298.25
2022-12-24T19:41:58.703Z,251.50
2022-12-24T19:45:03.028Z,268.75
2022-12-24T19:48:07.708Z,360.75
2022-12-24T19:51:14.853Z,382.50
2022-12-24T19:54:20.368Z,437.75
2022-12-24T19:57:25.646Z,413.75
2022-12-24T20:00:29.844Z,392.75
2022-12-24T20:03:35.983Z,281.50
2022-12-24T20:06:40.024Z,270.75
2022-12-24T20:09:47.079Z,261.75
2022-12-24T20:12:52.306Z,234.00
2022-12-24T20:16:00.258Z,240.75
2022-12-24T20:19:07.320Z,220.25
2022-12-24T20:22:12.421Z,288.25
2022-12-24T20:25:18.064Z,260.50
2022-12-24T20:28:23.516Z,285.50
2022-12-24T20:31:30.392Z,230.25
2022-12-24T20:34:37.424Z,334.50
2022-12-24T20:37:46.253Z,294.75
2022-12-24T20:40:57.032Z,275.50
2022-12-24T20:44:04.805Z,210.25
2022-12-24T20:47:14.652Z,197.00
2022-12-24T20:50:21.350Z,169.00
2022-12-24T20:53:25.637Z,210.00
2022-12-24T20:56:32.304Z,238.25
2022-12-24T20:59:36.368Z,206.75
2022-12-24T21:02:40.238Z,270.00
2022-12-24T21:05:47.744Z,219.75
2022-12-24T21:08:52.887Z,278.25
2022-12-24T21:12:15.909Z,239.75
2022-12-24T21:15:21.770Z,202.50
2022-12-24T21:18:27.376Z,194.50
2022-12-24T21:21:31.201Z,187.50
2022-12-24T21:24:42.296Z,193.00
2022-12-24T21:27:47.529Z,204.75
2022-12-24T21:30:54.292Z,221.75
2022-12-24T21:33:59.396Z,194.00
2022-12-24T21:37:04.743Z,192.25
2022-12-24T21:40:11.115Z,195.75
2022-12-24T21:43:16.828Z,203.00
2022-12-24T21:46:23.281Z,207.25
2022-12-24T21:49:46.323Z,313.25
2022-12-24T21:53:10.264Z,385.50
2022-12-24T21:56:14.304Z,254.25
2022-12-24T21:59:24.713Z,206.25
2022-12-24T22:02:31.764Z,192.50
2022-12-24T22:05:37.110Z,187.00
2022-12-24T22:08:58.885Z,194.75
2022-12-24T22:12:03.749Z,214.00
2022-12-24T22:15:10.752Z,202.00
2022-12-24T22:18:15.961Z,175.25
2022-12-24T22:21:20.841Z,229.75
2022-12-24T22:24:25.875Z,228.50
2022-12-24T22:27:31.112Z,196.25
2022-12-24T22:30:39.694Z,221.00
2022-12-24T22:33:45.513Z,230.25
2022-12-24T22:36:49.114Z,235.00
2022-12-24T22:39:55.546Z,291.00
2022-12-24T22:42:59.047Z,279.50
2022-12-24T22:46:06.616Z,243.50
2022-12-24T22:49:12.169Z,223.50
2022-12-24T22:52:16.159Z,239.75
2022-12-24T22:55:20.153Z,229.00
2022-12-24T22:58:25.408Z,223.00
2022-12-24T23:01:48.405Z,201.50
2022-12-24T23:04:54.630Z,230.00
2022-12-24T23:07:58.529Z,224.25
2022-12-24T23:11:12.276Z,238.25
2022-12-24T23:14:46.577Z,199.50
2022-12-24T23:17:56.490Z,183.25
2022-12-24T23:21:13.786Z,162.00
2022-12-24T23:24:20.129Z,135.00
2022-12-24T23:27:26.323Z,153.33
2022-12-24T23:30:33.326Z,132.33
2022-12-24T23:33:42.000Z,140.33
2022-12-24T23:36:51.395Z,114.00
2022-12-24T23:39:55.266Z,132.67
2022-12-24T23:43:00.351Z,122.67
2022-12-24T23:46:04.761Z,131.00
2022-12-24T23:49:14.765Z,134.00
2022-12-24T23:52:18.702Z,123.67
2022-12-24T23:55:22.796Z,143.00
2022-12-24T23:58:26.496Z,130.33
